JST807 YSSY-YMML
Flight info
| Callsign | JST807 |
|---|---|
| Flight time | 1h 4m |
| Altitude | 36000 |
| Route | GROOK1/16R WOL H65 LEECE Q29 ML |
| Aircraft | A20N/M-SDE2E3FGHIRWXY/LB1 |
Departure
| Time | 2026-04-21 10:48 |
|---|---|
| Airport | Sydney Kingsford Smith International Airport (YSSY) |
Arrival
| Time | 2026-04-21 11:53 |
|---|---|
| Airport | Melbourne Airport (YMML) |
| Time | Latitude | Longitude | Altitude | Speed | Heading |
|---|---|---|---|---|---|
| 2026-04-21 10:31 | -33.93524 | 151.17764 | 30 ft | 0 kts | 279° |
| 2026-04-21 10:38 | -33.93524 | 151.17768 | 30 ft | 2 kts | 279° |
| 2026-04-21 10:39 | -33.93527 | 151.17786 | 30 ft | 2 kts | 279° |
| 2026-04-21 10:39 | -33.93529 | 151.17803 | 30 ft | 2 kts | 275° |
| 2026-04-21 10:39 | -33.93529 | 151.17821 | 30 ft | 2 kts | 249° |
| 2026-04-21 10:39 | -33.93521 | 151.17837 | 30 ft | 2 kts | 220° |
| 2026-04-21 10:40 | -33.93508 | 151.17845 | 30 ft | 2 kts | 185° |
| 2026-04-21 10:40 | -33.93500 | 151.17846 | 30 ft | 0 kts | 188° |
| 2026-04-21 10:42 | -33.93503 | 151.17845 | 30 ft | 2 kts | 189° |
| 2026-04-21 10:42 | -33.93530 | 151.17838 | 30 ft | 6 kts | 191° |
| 2026-04-21 10:43 | -33.93581 | 151.17826 | 30 ft | 9 kts | 191° |
| 2026-04-21 10:43 | -33.93639 | 151.17812 | 30 ft | 7 kts | 194° |
| 2026-04-21 10:43 | -33.93656 | 151.17759 | 30 ft | 9 kts | 277° |
| 2026-04-21 10:43 | -33.93643 | 151.17676 | 30 ft | 12 kts | 285° |
| 2026-04-21 10:44 | -33.93580 | 151.17609 | 29 ft | 13 kts | 346° |
| 2026-04-21 10:44 | -33.93484 | 151.17585 | 29 ft | 14 kts | 351° |
| 2026-04-21 10:44 | -33.93385 | 151.17590 | 30 ft | 14 kts | 355° |
| 2026-04-21 10:44 | -33.93275 | 151.17564 | 30 ft | 18 kts | 348° |
| 2026-04-21 10:45 | -33.93172 | 151.17537 | 30 ft | 12 kts | 347° |
| 2026-04-21 10:45 | -33.93095 | 151.17518 | 30 ft | 10 kts | 355° |
| 2026-04-21 10:45 | -33.93025 | 151.17537 | 30 ft | 9 kts | 0° |
| 2026-04-21 10:45 | -33.92989 | 151.17490 | 30 ft | 8 kts | 283° |
| 2026-04-21 10:46 | -33.92978 | 151.17425 | 30 ft | 9 kts | 281° |
| 2026-04-21 10:46 | -33.92966 | 151.17354 | 30 ft | 6 kts | 281° |
| 2026-04-21 10:46 | -33.92960 | 151.17320 | 30 ft | 0 kts | 281° |
| 2026-04-21 10:47 | -33.92955 | 151.17285 | 30 ft | 9 kts | 278° |
| 2026-04-21 10:47 | -33.92975 | 151.17202 | 30 ft | 11 kts | 225° |
| 2026-04-21 10:47 | -33.93042 | 151.17188 | 30 ft | 11 kts | 168° |
| 2026-04-21 10:47 | -33.93207 | 151.17229 | 31 ft | 52 kts | 167° |
| 2026-04-21 10:48 | -33.93776 | 151.17377 | 26 ft | 112 kts | 168° |
| 2026-04-21 10:48 | -33.94683 | 151.17611 | 92 ft | 148 kts | 168° |
| 2026-04-21 10:48 | -33.95683 | 151.17742 | 670 ft | 145 kts | 179° |
| 2026-04-21 10:48 | -33.96689 | 151.17641 | 1317 ft | 144 kts | 184° |
| 2026-04-21 10:49 | -33.97675 | 151.17566 | 1932 ft | 146 kts | 181° |
| 2026-04-21 10:49 | -33.98750 | 151.17537 | 2297 ft | 163 kts | 179° |
| 2026-04-21 10:49 | -33.99949 | 151.17527 | 2616 ft | 182 kts | 179° |
| 2026-04-21 10:49 | -34.01290 | 151.17517 | 2937 ft | 204 kts | 179° |
| 2026-04-21 10:50 | -34.02266 | 151.17539 | 3212 ft | 219 kts | 175° |
| 2026-04-21 10:50 | -34.04395 | 151.17967 | 4112 ft | 240 kts | 176° |
| 2026-04-21 10:50 | -34.05505 | 151.17861 | 4734 ft | 246 kts | 194° |
| 2026-04-21 10:50 | -34.07073 | 151.16997 | 5738 ft | 251 kts | 207° |
| 2026-04-21 10:51 | -34.08572 | 151.15887 | 6750 ft | 257 kts | 210° |
| 2026-04-21 10:51 | -34.10079 | 151.14691 | 7655 ft | 261 kts | 211° |
| 2026-04-21 10:51 | -34.11603 | 151.13472 | 8627 ft | 264 kts | 210° |
| 2026-04-21 10:51 | -34.13159 | 151.12243 | 9566 ft | 270 kts | 210° |
| 2026-04-21 10:52 | -34.14751 | 151.10999 | 10456 ft | 278 kts | 210° |
| 2026-04-21 10:52 | -34.17026 | 151.09243 | 10966 ft | 309 kts | 210° |
| 2026-04-21 10:52 | -34.18892 | 151.07804 | 11443 ft | 325 kts | 210° |
| 2026-04-21 10:52 | -34.20186 | 151.06804 | 11996 ft | 328 kts | 210° |
| 2026-04-21 10:53 | -34.22119 | 151.05306 | 12851 ft | 332 kts | 211° |
| 2026-04-21 10:53 | -34.24077 | 151.03789 | 13706 ft | 336 kts | 211° |
| 2026-04-21 10:53 | -34.26059 | 151.02253 | 14499 ft | 341 kts | 211° |
| 2026-04-21 10:53 | -34.28059 | 151.00703 | 15295 ft | 343 kts | 211° |
| 2026-04-21 10:54 | -34.30049 | 150.99160 | 16076 ft | 345 kts | 210° |
| 2026-04-21 10:54 | -34.32105 | 150.97565 | 16867 ft | 348 kts | 210° |
| 2026-04-21 10:54 | -34.34124 | 150.95998 | 17613 ft | 351 kts | 210° |
| 2026-04-21 10:54 | -34.36184 | 150.94399 | 18380 ft | 353 kts | 210° |
| 2026-04-21 10:55 | -34.38262 | 150.92784 | 19065 ft | 357 kts | 210° |
| 2026-04-21 10:55 | -34.40359 | 150.91154 | 19704 ft | 359 kts | 210° |
| 2026-04-21 10:55 | -34.42471 | 150.89511 | 20347 ft | 362 kts | 210° |
| 2026-04-21 10:55 | -34.44601 | 150.87853 | 20985 ft | 366 kts | 210° |
| 2026-04-21 10:56 | -34.46747 | 150.86182 | 21609 ft | 369 kts | 210° |
| 2026-04-21 10:56 | -34.48916 | 150.84492 | 22233 ft | 372 kts | 210° |
| 2026-04-21 10:56 | -34.51103 | 150.82786 | 22843 ft | 375 kts | 210° |
| 2026-04-21 10:56 | -34.53299 | 150.81040 | 23438 ft | 380 kts | 212° |
| 2026-04-21 10:57 | -34.55366 | 150.79008 | 24021 ft | 385 kts | 219° |
| 2026-04-21 10:57 | -34.57235 | 150.76646 | 24542 ft | 391 kts | 226° |
| 2026-04-21 10:57 | -34.58888 | 150.74006 | 25075 ft | 395 kts | 230° |
| 2026-04-21 10:57 | -34.60506 | 150.71305 | 25584 ft | 397 kts | 229° |
| 2026-04-21 10:58 | -34.62143 | 150.68593 | 26085 ft | 398 kts | 229° |
| 2026-04-21 10:58 | -34.63775 | 150.65890 | 26562 ft | 401 kts | 229° |
| 2026-04-21 10:58 | -34.65436 | 150.63135 | 27027 ft | 403 kts | 229° |
| 2026-04-21 10:58 | -34.67099 | 150.60372 | 27494 ft | 405 kts | 229° |
| 2026-04-21 10:59 | -34.68766 | 150.57599 | 27919 ft | 408 kts | 229° |
| 2026-04-21 10:59 | -34.70421 | 150.54842 | 28360 ft | 410 kts | 229° |
| 2026-04-21 10:59 | -34.72131 | 150.51991 | 28797 ft | 412 kts | 229° |
| 2026-04-21 10:59 | -34.73803 | 150.49202 | 29203 ft | 415 kts | 229° |
| 2026-04-21 11:00 | -34.75504 | 150.46362 | 29600 ft | 417 kts | 229° |
| 2026-04-21 11:00 | -34.77215 | 150.43504 | 29916 ft | 419 kts | 229° |
| 2026-04-21 11:00 | -34.78935 | 150.40626 | 30333 ft | 421 kts | 229° |
| 2026-04-21 11:00 | -34.80659 | 150.37741 | 30690 ft | 423 kts | 229° |
| 2026-04-21 11:01 | -34.82396 | 150.34832 | 31009 ft | 425 kts | 229° |
| 2026-04-21 11:01 | -34.84134 | 150.31917 | 31365 ft | 427 kts | 229° |
| 2026-04-21 11:01 | -34.85878 | 150.28991 | 31773 ft | 426 kts | 229° |
| 2026-04-21 11:02 | -34.89351 | 150.23154 | 32672 ft | 423 kts | 229° |
| 2026-04-21 11:02 | -34.91073 | 150.20254 | 33146 ft | 421 kts | 228° |
| 2026-04-21 11:02 | -34.92787 | 150.17368 | 33587 ft | 420 kts | 228° |
| 2026-04-21 11:02 | -34.94493 | 150.14495 | 34012 ft | 418 kts | 228° |
| 2026-04-21 11:03 | -34.96195 | 150.11626 | 34430 ft | 416 kts | 228° |
| 2026-04-21 11:03 | -34.97889 | 150.08769 | 34774 ft | 415 kts | 228° |
| 2026-04-21 11:03 | -34.99572 | 150.05927 | 35138 ft | 413 kts | 228° |
| 2026-04-21 11:03 | -35.01252 | 150.03089 | 35429 ft | 412 kts | 229° |
| 2026-04-21 11:04 | -35.02925 | 150.00259 | 35739 ft | 411 kts | 229° |
| 2026-04-21 11:04 | -35.04595 | 149.97433 | 36037 ft | 410 kts | 229° |
| 2026-04-21 11:04 | -35.06260 | 149.94614 | 36303 ft | 410 kts | 229° |
| 2026-04-21 11:04 | -35.07924 | 149.91792 | 36401 ft | 408 kts | 229° |
| 2026-04-21 11:05 | -35.11234 | 149.86174 | 36409 ft | 407 kts | 229° |
| 2026-04-21 11:05 | -35.14545 | 149.80552 | 36408 ft | 407 kts | 229° |
| 2026-04-21 11:06 | -35.17850 | 149.74928 | 36407 ft | 407 kts | 229° |
| 2026-04-21 11:06 | -35.21156 | 149.69291 | 36412 ft | 408 kts | 229° |
| 2026-04-21 11:07 | -35.24459 | 149.63651 | 36417 ft | 408 kts | 229° |
| 2026-04-21 11:07 | -35.27741 | 149.58036 | 36416 ft | 409 kts | 229° |
| 2026-04-21 11:08 | -35.31044 | 149.52376 | 36409 ft | 409 kts | 229° |
| 2026-04-21 11:08 | -35.34348 | 149.46706 | 36410 ft | 409 kts | 230° |
| 2026-04-21 11:09 | -35.37648 | 149.41034 | 36410 ft | 409 kts | 230° |
| 2026-04-21 11:09 | -35.40946 | 149.35355 | 36411 ft | 409 kts | 230° |
| 2026-04-21 11:10 | -35.44242 | 149.29671 | 36407 ft | 409 kts | 230° |
| 2026-04-21 11:10 | -35.47535 | 149.23982 | 36409 ft | 409 kts | 230° |
| 2026-04-21 11:11 | -35.50830 | 149.18283 | 36413 ft | 409 kts | 230° |
| 2026-04-21 11:11 | -35.54118 | 149.12584 | 36415 ft | 409 kts | 230° |
| 2026-04-21 11:12 | -35.57405 | 149.06879 | 36423 ft | 409 kts | 230° |
| 2026-04-21 11:12 | -35.60691 | 149.01165 | 36428 ft | 410 kts | 230° |
| 2026-04-21 11:13 | -35.63955 | 148.95478 | 36428 ft | 409 kts | 230° |
| 2026-04-21 11:13 | -35.67238 | 148.89752 | 36427 ft | 410 kts | 230° |
| 2026-04-21 11:14 | -35.70518 | 148.84020 | 36426 ft | 410 kts | 231° |
| 2026-04-21 11:14 | -35.73798 | 148.78280 | 36423 ft | 410 kts | 231° |
| 2026-04-21 11:15 | -35.77078 | 148.72530 | 36426 ft | 410 kts | 231° |
| 2026-04-21 11:15 | -35.80358 | 148.66769 | 36420 ft | 410 kts | 231° |
| 2026-04-21 11:16 | -35.83632 | 148.61010 | 36418 ft | 410 kts | 231° |
| 2026-04-21 11:16 | -35.86903 | 148.55247 | 36405 ft | 410 kts | 231° |
| 2026-04-21 11:17 | -35.90170 | 148.49478 | 36404 ft | 411 kts | 231° |
| 2026-04-21 11:17 | -35.93428 | 148.43688 | 36402 ft | 411 kts | 231° |
| 2026-04-21 11:18 | -35.96692 | 148.37883 | 36410 ft | 412 kts | 232° |
| 2026-04-21 11:18 | -35.99948 | 148.32082 | 36394 ft | 411 kts | 232° |
| 2026-04-21 11:19 | -36.03204 | 148.26277 | 36389 ft | 411 kts | 232° |
| 2026-04-21 11:19 | -36.06459 | 148.20462 | 36391 ft | 412 kts | 232° |
| 2026-04-21 11:20 | -36.09721 | 148.14623 | 36385 ft | 412 kts | 232° |
| 2026-04-21 11:20 | -36.12974 | 148.08794 | 36381 ft | 412 kts | 232° |
| 2026-04-21 11:21 | -36.16213 | 148.03005 | 36376 ft | 412 kts | 232° |
| 2026-04-21 11:21 | -36.19477 | 147.97163 | 36381 ft | 413 kts | 232° |
| 2026-04-21 11:22 | -36.22734 | 147.91319 | 36372 ft | 411 kts | 232° |
| 2026-04-21 11:22 | -36.25975 | 147.85494 | 36363 ft | 410 kts | 232° |
| 2026-04-21 11:23 | -36.29210 | 147.79671 | 36354 ft | 409 kts | 232° |
| 2026-04-21 11:23 | -36.32454 | 147.73823 | 36379 ft | 414 kts | 232° |
| 2026-04-21 11:24 | -36.35708 | 147.67937 | 36375 ft | 413 kts | 233° |
| 2026-04-21 11:24 | -36.38954 | 147.62045 | 36378 ft | 413 kts | 233° |
| 2026-04-21 11:25 | -36.42201 | 147.56145 | 36379 ft | 414 kts | 233° |
| 2026-04-21 11:25 | -36.45429 | 147.50270 | 36374 ft | 413 kts | 233° |
| 2026-04-21 11:26 | -36.48666 | 147.44369 | 36370 ft | 413 kts | 233° |
| 2026-04-21 11:26 | -36.51899 | 147.38464 | 36364 ft | 413 kts | 233° |
| 2026-04-21 11:27 | -36.55130 | 147.32553 | 36361 ft | 413 kts | 233° |
| 2026-04-21 11:27 | -36.58358 | 147.26635 | 36361 ft | 414 kts | 233° |
| 2026-04-21 11:28 | -36.61588 | 147.20705 | 36355 ft | 414 kts | 233° |
| 2026-04-21 11:28 | -36.64798 | 147.14802 | 36365 ft | 415 kts | 233° |
| 2026-04-21 11:29 | -36.68032 | 147.08844 | 36362 ft | 415 kts | 234° |
| 2026-04-21 11:29 | -36.71263 | 147.02880 | 36369 ft | 416 kts | 234° |
| 2026-04-21 11:30 | -36.74501 | 146.96892 | 36372 ft | 416 kts | 234° |
| 2026-04-21 11:30 | -36.77734 | 146.90903 | 36370 ft | 417 kts | 234° |
| 2026-04-21 11:31 | -36.80967 | 146.84904 | 36373 ft | 417 kts | 234° |
| 2026-04-21 11:31 | -36.84202 | 146.78892 | 36269 ft | 417 kts | 234° |
| 2026-04-21 11:32 | -36.85818 | 146.75885 | 35847 ft | 419 kts | 234° |
| 2026-04-21 11:32 | -36.87448 | 146.72848 | 34998 ft | 425 kts | 234° |
| 2026-04-21 11:32 | -36.89112 | 146.69747 | 34014 ft | 432 kts | 234° |
| 2026-04-21 11:32 | -36.90779 | 146.66634 | 33281 ft | 431 kts | 234° |
| 2026-04-21 11:33 | -36.92444 | 146.63523 | 32484 ft | 431 kts | 234° |
| 2026-04-21 11:33 | -36.94111 | 146.60404 | 31679 ft | 431 kts | 234° |
| 2026-04-21 11:33 | -36.95770 | 146.57298 | 31123 ft | 427 kts | 234° |
| 2026-04-21 11:33 | -36.97410 | 146.54221 | 30527 ft | 423 kts | 234° |
| 2026-04-21 11:34 | -36.99038 | 146.51168 | 29907 ft | 419 kts | 234° |
| 2026-04-21 11:34 | -37.00643 | 146.48155 | 29330 ft | 414 kts | 234° |
| 2026-04-21 11:34 | -37.02231 | 146.45171 | 28764 ft | 409 kts | 234° |
| 2026-04-21 11:34 | -37.03797 | 146.42226 | 28201 ft | 405 kts | 234° |
| 2026-04-21 11:35 | -37.05326 | 146.39348 | 27647 ft | 401 kts | 234° |
| 2026-04-21 11:35 | -37.06863 | 146.36454 | 27090 ft | 397 kts | 234° |
| 2026-04-21 11:35 | -37.08390 | 146.33577 | 26530 ft | 394 kts | 234° |
| 2026-04-21 11:35 | -37.09900 | 146.30728 | 25990 ft | 392 kts | 234° |
| 2026-04-21 11:36 | -37.11405 | 146.27892 | 25414 ft | 390 kts | 235° |
| 2026-04-21 11:36 | -37.12903 | 146.25061 | 24840 ft | 389 kts | 235° |
| 2026-04-21 11:36 | -37.14393 | 146.22240 | 24308 ft | 387 kts | 235° |
| 2026-04-21 11:36 | -37.15878 | 146.19427 | 23703 ft | 386 kts | 235° |
| 2026-04-21 11:37 | -37.17353 | 146.16632 | 23136 ft | 383 kts | 235° |
| 2026-04-21 11:37 | -37.18814 | 146.13860 | 22589 ft | 379 kts | 235° |
| 2026-04-21 11:37 | -37.20263 | 146.11110 | 22032 ft | 377 kts | 235° |
| 2026-04-21 11:37 | -37.21703 | 146.08375 | 21484 ft | 374 kts | 235° |
| 2026-04-21 11:38 | -37.23133 | 146.05658 | 20934 ft | 372 kts | 235° |
| 2026-04-21 11:38 | -37.24555 | 146.02953 | 20381 ft | 370 kts | 235° |
| 2026-04-21 11:38 | -37.25970 | 146.00258 | 19831 ft | 369 kts | 235° |
| 2026-04-21 11:38 | -37.27378 | 145.97575 | 19263 ft | 368 kts | 235° |
| 2026-04-21 11:39 | -37.28786 | 145.94892 | 18713 ft | 367 kts | 235° |
| 2026-04-21 11:39 | -37.30189 | 145.92213 | 18108 ft | 366 kts | 235° |
| 2026-04-21 11:39 | -37.31581 | 145.89556 | 17561 ft | 363 kts | 235° |
| 2026-04-21 11:39 | -37.32964 | 145.86923 | 17020 ft | 360 kts | 235° |
| 2026-04-21 11:40 | -37.33877 | 145.85186 | 16656 ft | 358 kts | 235° |
| 2026-04-21 11:40 | -37.35244 | 145.82582 | 16109 ft | 356 kts | 235° |
| 2026-04-21 11:40 | -37.36606 | 145.79986 | 15562 ft | 355 kts | 235° |
| 2026-04-21 11:40 | -37.37957 | 145.77407 | 15023 ft | 353 kts | 235° |
| 2026-04-21 11:41 | -37.39305 | 145.74831 | 14471 ft | 352 kts | 235° |
| 2026-04-21 11:41 | -37.40652 | 145.72258 | 13905 ft | 351 kts | 235° |
| 2026-04-21 11:41 | -37.41988 | 145.69701 | 13367 ft | 348 kts | 236° |
| 2026-04-21 11:41 | -37.43313 | 145.67165 | 12838 ft | 345 kts | 236° |
| 2026-04-21 11:42 | -37.44626 | 145.64649 | 12304 ft | 343 kts | 236° |
| 2026-04-21 11:42 | -37.45931 | 145.62150 | 11780 ft | 341 kts | 236° |
| 2026-04-21 11:42 | -37.47238 | 145.59662 | 11241 ft | 339 kts | 236° |
| 2026-04-21 11:42 | -37.48551 | 145.57165 | 10448 ft | 346 kts | 236° |
| 2026-04-21 11:43 | -37.49869 | 145.54659 | 10104 ft | 338 kts | 236° |
| 2026-04-21 11:43 | -37.51136 | 145.52242 | 9940 ft | 323 kts | 236° |
| 2026-04-21 11:43 | -37.52344 | 145.49935 | 9809 ft | 309 kts | 236° |
| 2026-04-21 11:43 | -37.53499 | 145.47728 | 9677 ft | 295 kts | 236° |
| 2026-04-21 11:44 | -37.54611 | 145.45602 | 9410 ft | 287 kts | 236° |
| 2026-04-21 11:44 | -37.55705 | 145.43508 | 9016 ft | 285 kts | 236° |
| 2026-04-21 11:44 | -37.56793 | 145.41428 | 8576 ft | 284 kts | 236° |
| 2026-04-21 11:44 | -37.57880 | 145.39346 | 8139 ft | 284 kts | 237° |
| 2026-04-21 11:45 | -37.58963 | 145.37272 | 7735 ft | 282 kts | 237° |
| 2026-04-21 11:45 | -37.60041 | 145.35206 | 7328 ft | 281 kts | 237° |
| 2026-04-21 11:45 | -37.61112 | 145.33152 | 6790 ft | 279 kts | 237° |
| 2026-04-21 11:45 | -37.62175 | 145.31112 | 6242 ft | 277 kts | 237° |
| 2026-04-21 11:46 | -37.63225 | 145.29094 | 5829 ft | 273 kts | 237° |
| 2026-04-21 11:46 | -37.64221 | 145.27072 | 5428 ft | 269 kts | 244° |
| 2026-04-21 11:46 | -37.64856 | 145.24871 | 5027 ft | 267 kts | 258° |
| 2026-04-21 11:46 | -37.65119 | 145.22561 | 4620 ft | 266 kts | 264° |
| 2026-04-21 11:47 | -37.65347 | 145.20241 | 4225 ft | 266 kts | 263° |
| 2026-04-21 11:47 | -37.65584 | 145.17930 | 3824 ft | 266 kts | 263° |
| 2026-04-21 11:47 | -37.65823 | 145.15620 | 3422 ft | 266 kts | 263° |
| 2026-04-21 11:47 | -37.66060 | 145.13341 | 3020 ft | 265 kts | 264° |
| 2026-04-21 11:48 | -37.66301 | 145.11010 | 2625 ft | 263 kts | 264° |
| 2026-04-21 11:48 | -37.66532 | 145.08769 | 2474 ft | 250 kts | 264° |
| 2026-04-21 11:48 | -37.66745 | 145.06712 | 2448 ft | 229 kts | 264° |
| 2026-04-21 11:48 | -37.66944 | 145.04797 | 2446 ft | 212 kts | 265° |
| 2026-04-21 11:49 | -37.67112 | 145.03020 | 2465 ft | 195 kts | 268° |
| 2026-04-21 11:49 | -37.67160 | 145.01407 | 2447 ft | 174 kts | 273° |
| 2026-04-21 11:49 | -37.67119 | 144.99982 | 2438 ft | 150 kts | 277° |
| 2026-04-21 11:49 | -37.67037 | 144.98697 | 2461 ft | 149 kts | 277° |
| 2026-04-21 11:50 | -37.66967 | 144.97457 | 2344 ft | 136 kts | 277° |
| 2026-04-21 11:50 | -37.66896 | 144.96263 | 2176 ft | 136 kts | 278° |
| 2026-04-21 11:50 | -37.66826 | 144.95072 | 2007 ft | 135 kts | 278° |
| 2026-04-21 11:50 | -37.66757 | 144.93888 | 1835 ft | 136 kts | 278° |
| 2026-04-21 11:51 | -37.66688 | 144.92704 | 1671 ft | 134 kts | 278° |
| 2026-04-21 11:51 | -37.66622 | 144.91522 | 1473 ft | 135 kts | 277° |
| 2026-04-21 11:51 | -37.66566 | 144.90341 | 1286 ft | 136 kts | 277° |
| 2026-04-21 11:51 | -37.66490 | 144.89159 | 1131 ft | 134 kts | 278° |
| 2026-04-21 11:52 | -37.66418 | 144.87975 | 921 ft | 137 kts | 278° |
| 2026-04-21 11:52 | -37.66349 | 144.86786 | 719 ft | 135 kts | 279° |
| 2026-04-21 11:52 | -37.66278 | 144.85631 | 589 ft | 135 kts | 279° |
| 2026-04-21 11:52 | -37.66204 | 144.84443 | 419 ft | 134 kts | 277° |
| 2026-04-21 11:53 | -37.66152 | 144.83529 | 409 ft | 59 kts | 275° |
| 2026-04-21 11:53 | -37.66133 | 144.83222 | 413 ft | 25 kts | 271° |
| 2026-04-21 11:53 | -37.66157 | 144.82985 | 408 ft | 26 kts | 253° |
| 2026-04-21 11:53 | -37.66217 | 144.82814 | 399 ft | 19 kts | 244° |
| 2026-04-21 11:54 | -37.66286 | 144.82696 | 394 ft | 15 kts | 209° |
| 2026-04-21 11:54 | -37.66360 | 144.82686 | 390 ft | 13 kts | 168° |
| 2026-04-21 11:54 | -37.66435 | 144.82755 | 386 ft | 13 kts | 120° |
| 2026-04-21 11:54 | -37.66445 | 144.82876 | 386 ft | 14 kts | 98° |
| 2026-04-21 11:55 | -37.66457 | 144.82984 | 389 ft | 13 kts | 96° |
| 2026-04-21 11:55 | -37.66463 | 144.83085 | 388 ft | 11 kts | 94° |
| 2026-04-21 11:55 | -37.66468 | 144.83182 | 397 ft | 11 kts | 94° |
| 2026-04-21 11:55 | -37.66474 | 144.83280 | 400 ft | 12 kts | 94° |
| 2026-04-21 11:56 | -37.66480 | 144.83384 | 402 ft | 12 kts | 94° |
| 2026-04-21 11:56 | -37.66486 | 144.83482 | 403 ft | 8 kts | 94° |
| 2026-04-21 11:56 | -37.66491 | 144.83562 | 404 ft | 11 kts | 94° |
| 2026-04-21 11:56 | -37.66497 | 144.83667 | 405 ft | 13 kts | 94° |
| 2026-04-21 11:57 | -37.66504 | 144.83796 | 400 ft | 16 kts | 94° |
| 2026-04-21 11:57 | -37.66514 | 144.83906 | 403 ft | 10 kts | 110° |
| 2026-04-21 11:57 | -37.66590 | 144.83946 | 400 ft | 16 kts | 171° |
| 2026-04-21 11:57 | -37.66722 | 144.83971 | 395 ft | 23 kts | 172° |
| 2026-04-21 11:58 | -37.66879 | 144.84000 | 388 ft | 21 kts | 172° |
| 2026-04-21 11:58 | -37.66994 | 144.84022 | 385 ft | 15 kts | 169° |
| 2026-04-21 11:58 | -37.67069 | 144.84054 | 383 ft | 13 kts | 137° |
| 2026-04-21 11:58 | -37.67076 | 144.84164 | 383 ft | 14 kts | 82° |
| 2026-04-21 11:59 | -37.67060 | 144.84287 | 385 ft | 15 kts | 81° |
| 2026-04-21 11:59 | -37.67049 | 144.84382 | 387 ft | 7 kts | 82° |
| 2026-04-21 11:59 | -37.67032 | 144.84449 | 388 ft | 9 kts | 58° |
| 2026-04-21 11:59 | -37.67001 | 144.84489 | 389 ft | 6 kts | 27° |
| 2026-04-21 12:00 | -37.66958 | 144.84502 | 390 ft | 7 kts | 12° |
| 2026-04-21 12:00 | -37.66916 | 144.84512 | 391 ft | 2 kts | 12° |
| 2026-04-21 12:00 | -37.66903 | 144.84515 | 392 ft | 0 kts | 11° |